Thalassa — FNFP — position and weather

sailwx.info

Track history (hours):
 
Tides and Currents Weather Stations Pressure Air Temp Water Temp Dewpoint Dewpoint Depression Visibility Wind Speed Wind Dir Waves Ship Positions

Oceanographic research ship Thalassa (France & Spain)

Detailed information on ship capabilities available from University of Delaware's Ocean Information Center.

Last reported at 2016-May-02 22:28 UTC. Time now 2016-May-03 14:22 UTC.
Position N 43°40' W 001°50'.

Length 74 m; beam 15 m.

Type: Ship. MMSI: 227297000.

Date/timePositionNaut miles runAvg speedWind from/ knotsBaromVisibWave heightAir tempDewpointWater temp
2016-May-02 22:28N 43°40' W 001°50'4 3.9
2016-May-02 21:20N 43°40' W 001°44'810.5
2016-May-02 20:32N 43°40' W 001°32'3 2.6
2016-May-02 19:27N 43°40' W 001°28'1 0.6
2016-May-02 18:25N 43°40' W 001°27'15 7.6
2016-May-02 16:23N 43°40' W 001°49'4 4.5
2016-May-02 15:33N 43°40' W 001°43'279 6.5
2016-Apr-30 20:27N 47°51' W 004°39'1112.3
2016-Apr-30 19:33N 48°01' W 004°45'1111.2
2016-Apr-30 18:33N 48°12' W 004°45'8 8.4
2016-Apr-30 17:33N 48°20' W 004°41'0 0.5
2016-Apr-30 16:32N 48°20' W 004°40'0 0.0
2016-Apr-30 15:32N 48°20' W 004°40'0 0.0
2016-Apr-30 14:32N 48°20' W 004°40'0 0.0
2016-Apr-30 13:32N 48°20' W 004°40'0 0.0
2016-Apr-30 12:32N 48°20' W 004°40'0 0.0
2016-Apr-30 11:32N 48°20' W 004°41'0 0.0
2016-Apr-30 10:32N 48°20' W 004°41'0 0.0
2016-Apr-30 09:29N 48°20' W 004°41'0 0.0
2016-Apr-30 08:32N 48°20' W 004°41'0 0.0
2016-Apr-30 07:32N 48°20' W 004°41'0 0.0
2016-Apr-30 06:33N 48°20' W 004°41'5 5.4
2016-Apr-30 05:33N 48°21' W 004°32'3 2.9
2016-Apr-30 04:33N 48°23' W 004°29'0 0.0
2016-Apr-30 03:33N 48°23' W 004°29'0 0.0
2016-Apr-30 02:33N 48°23' W 004°29'0 0.0
2016-Apr-30 01:33N 48°23' W 004°29'0 0.0
2016-Apr-30 00:33N 48°23' W 004°29'0 0.0
2016-Apr-29 23:33N 48°23' W 004°29'0 0.0
2016-Apr-29 22:33N 48°23' W 004°29'0 0.0
2016-Apr-29 21:33N 48°23' W 004°29'0 0.0
2016-Apr-29 20:33N 48°23' W 004°29'0 0.0
2016-Apr-29 19:33N 48°23' W 004°29'0 0.0
2016-Apr-29 18:33N 48°23' W 004°29'0 0.0
2016-Apr-29 17:33N 48°23' W 004°29'0 0.0
2016-Apr-29 16:33N 48°23' W 004°29'0 0.0
2016-Apr-29 15:33N 48°23' W 004°29'0 0.0
2016-Apr-29 14:33N 48°23' W 004°29'0 0.0
2016-Apr-29 13:33N 48°23' W 004°29'0 0.0
2016-Apr-29 12:33N 48°23' W 004°29'0 0.0
2016-Apr-29 11:30N 48°23' W 004°29'0 0.0
2016-Apr-29 10:33N 48°23' W 004°29'0 0.0
2016-Apr-29 09:33N 48°23' W 004°29'0 0.0
2016-Apr-29 08:33N 48°23' W 004°29'0 0.0
2016-Apr-29 07:33N 48°23' W 004°29'0 0.0
2016-Apr-29 06:33N 48°23' W 004°29'0 0.0
2016-Apr-29 05:33N 48°23' W 004°29'0 0.0
2016-Apr-29 04:33N 48°23' W 004°29'0 0.0
2016-Apr-29 03:31N 48°23' W 004°29'0 0.0
2016-Apr-29 02:31N 48°23' W 004°29'0 0.0
2016-Apr-29 01:31N 48°23' W 004°29'0 0.0
2016-Apr-29 00:31N 48°23' W 004°29'0 0.0
2016-Apr-28 23:31N 48°23' W 004°29'0 0.0
2016-Apr-28 22:31N 48°23' W 004°29'0 0.0
2016-Apr-28 21:31N 48°23' W 004°29'0 0.0
2016-Apr-28 20:31N 48°23' W 004°29'0 0.0
2016-Apr-28 19:31N 48°23' W 004°29'0 0.0
2016-Apr-28 18:31N 48°23' W 004°29'0 0.0
2016-Apr-28 17:31N 48°23' W 004°29'0 0.0
2016-Apr-28 16:31N 48°23' W 004°29'0 0.0
2016-Apr-28 15:31N 48°23' W 004°29'0 0.0
2016-Apr-28 14:31N 48°23' W 004°29'0 0.0
2016-Apr-28 13:31N 48°23' W 004°29'0 0.0
2016-Apr-28 12:31N 48°23' W 004°29'0 0.0
2016-Apr-28 11:31N 48°23' W 004°29'0 0.0
2016-Apr-28 10:31N 48°23' W 004°29'0 0.0
2016-Apr-28 09:31N 48°23' W 004°29'0 0.0
2016-Apr-28 08:31N 48°23' W 004°29'0 0.0
2016-Apr-28 07:31N 48°23' W 004°29'0 0.0
2016-Apr-28 06:31N 48°23' W 004°29'0 0.0
2016-Apr-28 05:31N 48°23' W 004°29'0 0.0
2016-Apr-28 04:31N 48°23' W 004°29'0 0.0
2016-Apr-28 03:31N 48°23' W 004°29'0 0.0
2016-Apr-28 02:31N 48°23' W 004°29'0 0.0
2016-Apr-28 01:31N 48°23' W 004°29'0 0.0
2016-Apr-28 00:31N 48°23' W 004°29'0 0.0
2016-Apr-27 23:31N 48°23' W 004°29'0 0.0
2016-Apr-27 22:31N 48°23' W 004°29'0 0.0
2016-Apr-27 21:31N 48°23' W 004°29'0 0.0
2016-Apr-27 20:31N 48°23' W 004°29'0 0.0
2016-Apr-27 19:31N 48°23' W 004°29'0 0.0
2016-Apr-27 18:31N 48°23' W 004°29'0 0.0
2016-Apr-27 17:31N 48°23' W 004°29'0 0.0
2016-Apr-27 16:31N 48°23' W 004°29'0 0.0
2016-Apr-27 15:31N 48°23' W 004°29'0 0.0
2016-Apr-27 14:31N 48°23' W 004°29'0 0.0
2016-Apr-27 13:31N 48°23' W 004°29'0 0.0
2016-Apr-27 12:31N 48°23' W 004°29'0 0.0
2016-Apr-27 11:31N 48°23' W 004°29'0 0.0
2016-Apr-27 10:31N 48°23' W 004°29'0 0.0
2016-Apr-27 09:31N 48°23' W 004°29'0 0.0
2016-Apr-27 08:31N 48°23' W 004°29'0 0.0
2016-Apr-27 07:31N 48°23' W 004°29'0 0.0
2016-Apr-27 06:31N 48°23' W 004°29'0 0.0
2016-Apr-27 05:31N 48°23' W 004°29'0 0.0
2016-Apr-27 04:31N 48°23' W 004°29'0 0.0
2016-Apr-27 03:31N 48°23' W 004°29'0 0.0
2016-Apr-27 02:31N 48°23' W 004°29'0 0.0
2016-Apr-27 01:31N 48°23' W 004°29'0 0.0
2016-Apr-27 00:31N 48°23' W 004°29'0 0.0
2016-Apr-26 23:31N 48°23' W 004°29'0 0.0
2016-Apr-26 22:31N 48°23' W 004°29'0 0.0
2016-Apr-26 21:31N 48°23' W 004°29'0 0.0
2016-Apr-26 20:31N 48°23' W 004°29'0 0.0
2016-Apr-26 19:31N 48°23' W 004°29'0 0.0
2016-Apr-26 18:31N 48°23' W 004°29'0 0.0
2016-Apr-26 17:31N 48°23' W 004°29'0 0.0
2016-Apr-26 16:31N 48°23' W 004°29'0 0.0
2016-Apr-26 15:31N 48°23' W 004°29'0 0.0
2016-Apr-26 14:31N 48°23' W 004°29'0 0.0
2016-Apr-26 13:31N 48°23' W 004°29'0 0.0
2016-Apr-26 12:31N 48°23' W 004°29'0 0.0
2016-Apr-26 11:31N 48°23' W 004°29'0 0.0
2016-Apr-26 10:31N 48°23' W 004°29'0 0.0
2016-Apr-26 09:31N 48°23' W 004°29'0 0.0
2016-Apr-26 08:31N 48°23' W 004°29'0 0.0
2016-Apr-26 07:31N 48°23' W 004°29'0 0.0
2016-Apr-26 06:31N 48°23' W 004°29'0 0.0
2016-Apr-26 05:31N 48°23' W 004°29'0 0.0
2016-Apr-26 04:28N 48°23' W 004°29'0 0.0
2016-Apr-26 03:31N 48°23' W 004°29'0 0.0
2016-Apr-26 02:31N 48°23' W 004°29'0 0.0
2016-Apr-26 01:31N 48°23' W 004°29'0 0.0
2016-Apr-26 00:31N 48°23' W 004°29'0 0.0
2016-Apr-25 23:31N 48°23' W 004°29'0 0.0
2016-Apr-25 22:31N 48°23' W 004°29'0 0.0
2016-Apr-25 21:31N 48°23' W 004°29'0 0.0
2016-Apr-25 20:31N 48°23' W 004°29'0 0.0
2016-Apr-25 19:31N 48°23' W 004°29'0 0.0
2016-Apr-25 18:31N 48°23' W 004°29'0 0.0
2016-Apr-25 17:31N 48°23' W 004°29'0 0.0
2016-Apr-25 16:34N 48°23' W 004°29'0 0.0
2016-Apr-25 15:34N 48°23' W 004°29'0 0.0
2016-Apr-25 14:34N 48°23' W 004°29'0 0.0
2016-Apr-25 13:34N 48°23' W 004°29'0 0.0
2016-Apr-25 12:34N 48°23' W 004°29'0 0.0
2016-Apr-25 11:33N 48°23' W 004°29'0 0.0
2016-Apr-25 10:33N 48°23' W 004°29'0 0.0
2016-Apr-25 09:33N 48°23' W 004°29'0 0.0
2016-Apr-25 08:33N 48°23' W 004°29'0 0.0
2016-Apr-25 07:33N 48°23' W 004°29'0 0.0
2016-Apr-25 06:33N 48°23' W 004°29'0 0.0
2016-Apr-25 05:33N 48°23' W 004°29'0 0.0
2016-Apr-25 04:33N 48°23' W 004°29'0 0.0
2016-Apr-25 03:33N 48°23' W 004°29'0 0.0
2016-Apr-25 02:33N 48°23' W 004°29'0 0.0
2016-Apr-25 01:33N 48°23' W 004°29'0 0.0
2016-Apr-25 00:30N 48°23' W 004°29'0 0.0
2016-Apr-24 23:33N 48°23' W 004°29'0 0.0
2016-Apr-24 22:33N 48°23' W 004°29'0 0.0
2016-Apr-24 21:33N 48°23' W 004°29'0 0.0
2016-Apr-24 20:33N 48°23' W 004°29'0 0.0
2016-Apr-24 19:33N 48°23' W 004°29'0 0.0
2016-Apr-24 18:33N 48°23' W 004°29'0 0.0
2016-Apr-24 17:33N 48°23' W 004°29'0 0.0
2016-Apr-24 16:33N 48°23' W 004°29'0 0.0
2016-Apr-24 15:30N 48°23' W 004°29'0 0.0
2016-Apr-24 14:33N 48°23' W 004°29'0 0.0
2016-Apr-24 13:33N 48°23' W 004°29'0 0.0
2016-Apr-24 12:33N 48°23' W 004°29'0 0.0
2016-Apr-24 11:33N 48°23' W 004°29'0 0.0
2016-Apr-24 10:33N 48°23' W 004°29'0 0.0
2016-Apr-24 09:33N 48°23' W 004°29'0 0.0
2016-Apr-24 08:33N 48°23' W 004°29'0 0.0
2016-Apr-24 07:33N 48°23' W 004°29'0 0.0
2016-Apr-24 06:33N 48°23' W 004°29'0 0.0
2016-Apr-24 05:33N 48°23' W 004°29'0 0.0
2016-Apr-24 04:33N 48°23' W 004°29'0 0.0
2016-Apr-24 03:33N 48°23' W 004°29'0 0.0
2016-Apr-24 02:33N 48°23' W 004°29'0 0.0
2016-Apr-24 01:33N 48°23' W 004°29'0 0.0
2016-Apr-24 00:33N 48°23' W 004°29'0 0.0
2016-Apr-23 23:33N 48°23' W 004°29'0 0.0
2016-Apr-23 22:33N 48°23' W 004°29'0 0.0
2016-Apr-23 21:30N 48°23' W 004°29'0 0.0
2016-Apr-23 20:33N 48°23' W 004°29'0 0.0
2016-Apr-23 19:33N 48°23' W 004°29'0 0.0
2016-Apr-23 18:33N 48°23' W 004°29'0 0.0
2016-Apr-23 17:33N 48°23' W 004°29'0 0.0
2016-Apr-23 16:33N 48°23' W 004°29'0 0.0
2016-Apr-23 15:34N 48°23' W 004°29'4 4.2
2016-Apr-23 14:34N 48°21' W 004°34'1010.1
2016-Apr-23 13:34N 48°16' W 004°48'9 9.1
2016-Apr-23 12:33N 48°10' W 004°58'  
Track history (hours):
 
Tides and Currents Weather Stations Pressure Air Temp Water Temp Dewpoint Dewpoint Depression Visibility Wind Speed Wind Dir Waves Ship Positions

Oceanographic research ship Thalassa (France & Spain)

Detailed information on ship capabilities available from University of Delaware's Ocean Information Center.

Last reported at 2016-May-02 22:28 UTC. Time now 2016-May-03 14:22 UTC.
Position N 43°40' W 001°50'.

Length 74 m; beam 15 m.

Type: Ship. MMSI: 227297000.

Date/timePositionNaut miles runAvg speedWind from/ knotsBaromVisibWave heightAir tempDewpointWater temp
2016-May-02 22:28N 43°40' W 001°50'4 3.9
2016-May-02 21:20N 43°40' W 001°44'810.5
2016-May-02 20:32N 43°40' W 001°32'3 2.6
2016-May-02 19:27N 43°40' W 001°28'1 0.6
2016-May-02 18:25N 43°40' W 001°27'15 7.6
2016-May-02 16:23N 43°40' W 001°49'4 4.5
2016-May-02 15:33N 43°40' W 001°43'279 6.5
2016-Apr-30 20:27N 47°51' W 004°39'1112.3
2016-Apr-30 19:33N 48°01' W 004°45'1111.2
2016-Apr-30 18:33N 48°12' W 004°45'8 8.4
2016-Apr-30 17:33N 48°20' W 004°41'0 0.5
2016-Apr-30 16:32N 48°20' W 004°40'0 0.0
2016-Apr-30 15:32N 48°20' W 004°40'0 0.0
2016-Apr-30 14:32N 48°20' W 004°40'0 0.0
2016-Apr-30 13:32N 48°20' W 004°40'0 0.0
2016-Apr-30 12:32N 48°20' W 004°40'0 0.0
2016-Apr-30 11:32N 48°20' W 004°41'0 0.0
2016-Apr-30 10:32N 48°20' W 004°41'0 0.0
2016-Apr-30 09:29N 48°20' W 004°41'0 0.0
2016-Apr-30 08:32N 48°20' W 004°41'0 0.0
2016-Apr-30 07:32N 48°20' W 004°41'0 0.0
2016-Apr-30 06:33N 48°20' W 004°41'5 5.4
2016-Apr-30 05:33N 48°21' W 004°32'3 2.9
2016-Apr-30 04:33N 48°23' W 004°29'0 0.0
2016-Apr-30 03:33N 48°23' W 004°29'0 0.0
2016-Apr-30 02:33N 48°23' W 004°29'0 0.0
2016-Apr-30 01:33N 48°23' W 004°29'0 0.0
2016-Apr-30 00:33N 48°23' W 004°29'0 0.0
2016-Apr-29 23:33N 48°23' W 004°29'0 0.0
2016-Apr-29 22:33N 48°23' W 004°29'0 0.0
2016-Apr-29 21:33N 48°23' W 004°29'0 0.0
2016-Apr-29 20:33N 48°23' W 004°29'0 0.0
2016-Apr-29 19:33N 48°23' W 004°29'0 0.0
2016-Apr-29 18:33N 48°23' W 004°29'0 0.0
2016-Apr-29 17:33N 48°23' W 004°29'0 0.0
2016-Apr-29 16:33N 48°23' W 004°29'0 0.0
2016-Apr-29 15:33N 48°23' W 004°29'0 0.0
2016-Apr-29 14:33N 48°23' W 004°29'0 0.0
2016-Apr-29 13:33N 48°23' W 004°29'0 0.0
2016-Apr-29 12:33N 48°23' W 004°29'0 0.0
2016-Apr-29 11:30N 48°23' W 004°29'0 0.0
2016-Apr-29 10:33N 48°23' W 004°29'0 0.0
2016-Apr-29 09:33N 48°23' W 004°29'0 0.0
2016-Apr-29 08:33N 48°23' W 004°29'0 0.0
2016-Apr-29 07:33N 48°23' W 004°29'0 0.0
2016-Apr-29 06:33N 48°23' W 004°29'0 0.0
2016-Apr-29 05:33N 48°23' W 004°29'0 0.0
2016-Apr-29 04:33N 48°23' W 004°29'0 0.0
2016-Apr-29 03:31N 48°23' W 004°29'0 0.0
2016-Apr-29 02:31N 48°23' W 004°29'0 0.0
2016-Apr-29 01:31N 48°23' W 004°29'0 0.0
2016-Apr-29 00:31N 48°23' W 004°29'0 0.0
2016-Apr-28 23:31N 48°23' W 004°29'0 0.0
2016-Apr-28 22:31N 48°23' W 004°29'0 0.0
2016-Apr-28 21:31N 48°23' W 004°29'0 0.0
2016-Apr-28 20:31N 48°23' W 004°29'0 0.0
2016-Apr-28 19:31N 48°23' W 004°29'0 0.0
2016-Apr-28 18:31N 48°23' W 004°29'0 0.0
2016-Apr-28 17:31N 48°23' W 004°29'0 0.0
2016-Apr-28 16:31N 48°23' W 004°29'0 0.0
2016-Apr-28 15:31N 48°23' W 004°29'0 0.0
2016-Apr-28 14:31N 48°23' W 004°29'0 0.0
2016-Apr-28 13:31N 48°23' W 004°29'0 0.0
2016-Apr-28 12:31N 48°23' W 004°29'0 0.0
2016-Apr-28 11:31N 48°23' W 004°29'0 0.0
2016-Apr-28 10:31N 48°23' W 004°29'0 0.0
2016-Apr-28 09:31N 48°23' W 004°29'0 0.0
2016-Apr-28 08:31N 48°23' W 004°29'0 0.0
2016-Apr-28 07:31N 48°23' W 004°29'0 0.0
2016-Apr-28 06:31N 48°23' W 004°29'0 0.0
2016-Apr-28 05:31N 48°23' W 004°29'0 0.0
2016-Apr-28 04:31N 48°23' W 004°29'0 0.0
2016-Apr-28 03:31N 48°23' W 004°29'0 0.0
2016-Apr-28 02:31N 48°23' W 004°29'0 0.0
2016-Apr-28 01:31N 48°23' W 004°29'0 0.0
2016-Apr-28 00:31N 48°23' W 004°29'0 0.0
2016-Apr-27 23:31N 48°23' W 004°29'0 0.0
2016-Apr-27 22:31N 48°23' W 004°29'0 0.0
2016-Apr-27 21:31N 48°23' W 004°29'0 0.0
2016-Apr-27 20:31N 48°23' W 004°29'0 0.0
2016-Apr-27 19:31N 48°23' W 004°29'0 0.0
2016-Apr-27 18:31N 48°23' W 004°29'0 0.0
2016-Apr-27 17:31N 48°23' W 004°29'0 0.0
2016-Apr-27 16:31N 48°23' W 004°29'0 0.0
2016-Apr-27 15:31N 48°23' W 004°29'0 0.0
2016-Apr-27 14:31N 48°23' W 004°29'0 0.0
2016-Apr-27 13:31N 48°23' W 004°29'0 0.0
2016-Apr-27 12:31N 48°23' W 004°29'0 0.0
2016-Apr-27 11:31N 48°23' W 004°29'0 0.0
2016-Apr-27 10:31N 48°23' W 004°29'0 0.0
2016-Apr-27 09:31N 48°23' W 004°29'0 0.0
2016-Apr-27 08:31N 48°23' W 004°29'0 0.0
2016-Apr-27 07:31N 48°23' W 004°29'0 0.0
2016-Apr-27 06:31N 48°23' W 004°29'0 0.0
2016-Apr-27 05:31N 48°23' W 004°29'0 0.0
2016-Apr-27 04:31N 48°23' W 004°29'0 0.0
2016-Apr-27 03:31N 48°23' W 004°29'0 0.0
2016-Apr-27 02:31N 48°23' W 004°29'0 0.0
2016-Apr-27 01:31N 48°23' W 004°29'0 0.0
2016-Apr-27 00:31N 48°23' W 004°29'0 0.0
2016-Apr-26 23:31N 48°23' W 004°29'0 0.0
2016-Apr-26 22:31N 48°23' W 004°29'0 0.0
2016-Apr-26 21:31N 48°23' W 004°29'0 0.0
2016-Apr-26 20:31N 48°23' W 004°29'0 0.0
2016-Apr-26 19:31N 48°23' W 004°29'0 0.0
2016-Apr-26 18:31N 48°23' W 004°29'0 0.0
2016-Apr-26 17:31N 48°23' W 004°29'0 0.0
2016-Apr-26 16:31N 48°23' W 004°29'0 0.0
2016-Apr-26 15:31N 48°23' W 004°29'0 0.0
2016-Apr-26 14:31N 48°23' W 004°29'0 0.0
2016-Apr-26 13:31N 48°23' W 004°29'0 0.0
2016-Apr-26 12:31N 48°23' W 004°29'0 0.0
2016-Apr-26 11:31N 48°23' W 004°29'0 0.0
2016-Apr-26 10:31N 48°23' W 004°29'0 0.0
2016-Apr-26 09:31N 48°23' W 004°29'0 0.0
2016-Apr-26 08:31N 48°23' W 004°29'0 0.0
2016-Apr-26 07:31N 48°23' W 004°29'0 0.0
2016-Apr-26 06:31N 48°23' W 004°29'0 0.0
2016-Apr-26 05:31N 48°23' W 004°29'0 0.0
2016-Apr-26 04:28N 48°23' W 004°29'0 0.0
2016-Apr-26 03:31N 48°23' W 004°29'0 0.0
2016-Apr-26 02:31N 48°23' W 004°29'0 0.0
2016-Apr-26 01:31N 48°23' W 004°29'0 0.0
2016-Apr-26 00:31N 48°23' W 004°29'0 0.0
2016-Apr-25 23:31N 48°23' W 004°29'0 0.0
2016-Apr-25 22:31N 48°23' W 004°29'0 0.0
2016-Apr-25 21:31N 48°23' W 004°29'0 0.0
2016-Apr-25 20:31N 48°23' W 004°29'0 0.0
2016-Apr-25 19:31N 48°23' W 004°29'0 0.0
2016-Apr-25 18:31N 48°23' W 004°29'0 0.0
2016-Apr-25 17:31N 48°23' W 004°29'0 0.0
2016-Apr-25 16:34N 48°23' W 004°29'0 0.0
2016-Apr-25 15:34N 48°23' W 004°29'0 0.0
2016-Apr-25 14:34N 48°23' W 004°29'0 0.0
2016-Apr-25 13:34N 48°23' W 004°29'0 0.0
2016-Apr-25 12:34N 48°23' W 004°29'0 0.0
2016-Apr-25 11:33N 48°23' W 004°29'0 0.0
2016-Apr-25 10:33N 48°23' W 004°29'0 0.0
2016-Apr-25 09:33N 48°23' W 004°29'0 0.0
2016-Apr-25 08:33N 48°23' W 004°29'0 0.0
2016-Apr-25 07:33N 48°23' W 004°29'0 0.0
2016-Apr-25 06:33N 48°23' W 004°29'0 0.0
2016-Apr-25 05:33N 48°23' W 004°29'0 0.0
2016-Apr-25 04:33N 48°23' W 004°29'0 0.0
2016-Apr-25 03:33N 48°23' W 004°29'0 0.0
2016-Apr-25 02:33N 48°23' W 004°29'0 0.0
2016-Apr-25 01:33N 48°23' W 004°29'0 0.0
2016-Apr-25 00:30N 48°23' W 004°29'0 0.0
2016-Apr-24 23:33N 48°23' W 004°29'0 0.0
2016-Apr-24 22:33N 48°23' W 004°29'0 0.0
2016-Apr-24 21:33N 48°23' W 004°29'0 0.0
2016-Apr-24 20:33N 48°23' W 004°29'0 0.0
2016-Apr-24 19:33N 48°23' W 004°29'0 0.0
2016-Apr-24 18:33N 48°23' W 004°29'0 0.0
2016-Apr-24 17:33N 48°23' W 004°29'0 0.0
2016-Apr-24 16:33N 48°23' W 004°29'0 0.0
2016-Apr-24 15:30N 48°23' W 004°29'0 0.0
2016-Apr-24 14:33N 48°23' W 004°29'0 0.0
2016-Apr-24 13:33N 48°23' W 004°29'0 0.0
2016-Apr-24 12:33N 48°23' W 004°29'0 0.0
2016-Apr-24 11:33N 48°23' W 004°29'0 0.0
2016-Apr-24 10:33N 48°23' W 004°29'0 0.0
2016-Apr-24 09:33N 48°23' W 004°29'0 0.0
2016-Apr-24 08:33N 48°23' W 004°29'0 0.0
2016-Apr-24 07:33N 48°23' W 004°29'0 0.0
2016-Apr-24 06:33N 48°23' W 004°29'0 0.0
2016-Apr-24 05:33N 48°23' W 004°29'0 0.0
2016-Apr-24 04:33N 48°23' W 004°29'0 0.0
2016-Apr-24 03:33N 48°23' W 004°29'0 0.0
2016-Apr-24 02:33N 48°23' W 004°29'0 0.0
2016-Apr-24 01:33N 48°23' W 004°29'0 0.0
2016-Apr-24 00:33N 48°23' W 004°29'0 0.0
2016-Apr-23 23:33N 48°23' W 004°29'0 0.0
2016-Apr-23 22:33N 48°23' W 004°29'0 0.0
2016-Apr-23 21:30N 48°23' W 004°29'0 0.0
2016-Apr-23 20:33N 48°23' W 004°29'0 0.0
2016-Apr-23 19:33N 48°23' W 004°29'0 0.0
2016-Apr-23 18:33N 48°23' W 004°29'0 0.0
2016-Apr-23 17:33N 48°23' W 004°29'0 0.0
2016-Apr-23 16:33N 48°23' W 004°29'0 0.0
2016-Apr-23 15:34N 48°23' W 004°29'4 4.2
2016-Apr-23 14:34N 48°21' W 004°34'1010.1
2016-Apr-23 13:34N 48°16' W 004°48'9 9.1
2016-Apr-23 12:33N 48°10' W 004°58'  

Dump ship's entire track history